Sauk Centre, Minnesota
Current Conditions -  °F | °C
As of 2:52 PM on Thursday 18 Dec 2014 (Local Time) from KD39 Reporting Station
Overcast Overcast  
Wind Chill:   Ceiling: 1700
Heat Index: 19°   Visibility: 10mi
Dew Point: 13°   Wind: 7mph
Humidity: 78%   Direction: 160°SSE
Pressure: 30.23"   Gusts: NA
Location:  45.74°N, 94.95°W
Report Text: KD39 182052Z AUTO 16006KT 10SM BKN017 OVC070 M07/M11 A3023 RMK AO2 T10751107
Loading
Personal Weather Stations






























Interactive Weather Map New forecast layout! Learn more

10-Day Weather Forecast

Advertisements
Track Severe Weather on mobile